Washington Island, WI (54246)

1:08 PM CDT on October 31, 2014 (GMT -0500)
South Shore Drive | Change Station
CLOSE
Current Station
Personal Weather Station
Location: Washington Island, WI
Elevation: 604 ft
Nearby Weather Stations

Elev 604 ft 45.34 °N, 86.89 °W | Updated 2 minutes ago

Overcast
Overcast
36.0 °F
Feels Like 32 °F
N
5.0
Wind Variable Wind from NNW
Gusts 11.0 mph

Today
High -- | Low -- °F
--% Chance of Precip.
Yesterday
High -- | Low -- °F
Precip. -- in
7:25 AM 5:36 PM
First Quarter, 57% visible
Pressure 30.33 in
Visibility 10.0 miles
Clouds Scattered Clouds 3600 ft
Mostly Cloudy 4600 ft
Overcast 5500 ft
Windchill 32 °F
Dew Point 32 °F
Humidity 84%
Rainfall 0.23 in
Snow Depth Not available.
UV 0.8 out of 12
Pollen .10 out of 12
Air Quality Not available.
Flu Activity Not available.
METAR KESC 311755Z AUTO 36012G21KT 330V030 10SM SCT036 BKN046 OVC055 02/M06 A3033 RMK AO1 10020 20000 52014

More Conditions Fewer Conditions

Pressure 30.33 in
Visibility 10.0 miles
Clouds Scattered Clouds 3600 ft
Mostly Cloudy 4600 ft
Overcast 5500 ft
Windchill 32 °F
Dew Point 32 °F
Humidity 84%
Rainfall 0.23 in
Snow Depth Not available.
UV 0.8 out of 12
Pollen .10 out of 12
Air Quality Not available.
Flu Activity Not available.
METAR KESC 311755Z AUTO 36012G21KT 330V030 10SM SCT036 BKN046 OVC055 02/M06 A3033 RMK AO1 10020 20000 52014

More Conditions Fewer Conditions

10-Day Weather Forecast

Almanac

Astronomy

Oct. 31, 2014 Rise Set
Actual Time
Civil Twilight
Nautical Twilight
Astronomical Twilight
Moon
Length of Visible Light
Length of Day
Tomorrow will be .
, % of the Moon is Illuminated

Today's Extremes

State Highs State Lows

Community

WunderPhotos

Upload Photos

1,766,679 photos uploaded!

WunderBlogs® & News

Nearby

Air Quality

  Air Quality AQ Index Pollutant
Not available.

Snow Depth

Station Depth Elevation

Earthquake Activity

City Distance Mag. Time & Date
Minimum magnitude displayed is 2.5.

Coastal Water Temperatures

Place Temperature

Nearby Weather Stations